0TX1 – Local Weather Observations

Pecan Plantation

This weather station is operated by a private user located just north of the field. Data is gathered via OpenWeatherMap.org.

Last updated:
2024-05-20 03:43:35(10:43 pm)

Temperature: 79.4 °F

Sunrise / Sunset: 6:28 am / 8:26 pm

Civil Dawn / Dusk: 6:00 am / 8:53 pm

Nearby METARs

KGDJ 200355Z AUTO 15008KT 10SM CLR 26/20 A2982 RMK AO2 T02640200

KCPT 200355Z AUTO 14010G16KT 10SM 25/21 A2984 RMK A01

KFWS 200335Z AUTO 13008KT 10SM CLR 26/19 A2985 RMK AO2 T02570195

KSEP 200335Z AUTO 16012G15KT 10SM CLR 26/19 A2985 RMK AO2 T02560190